Toronto, South Dakota
Current Conditions -  °F | °C
As of 1:53 PM on Saturday 25 Oct 2014 (Local Time) from KCNB Reporting Station
Clear Clear  
Wind Chill: 17°   Ceiling: Unl
Heat Index: 17°   Visibility: 10mi
Dew Point:   Wind: 7mph
Humidity: 33%   Direction: 340°NNW
Pressure: 30.13"   Gusts: 16mph
Location:  44.57°N, 96.64°W
Report Text: KCNB 251853Z AUTO 34006G14KT 10SM CLR 17/01 A3013 RMK AO2 T01680005
Loading
Personal Weather Stations






























Interactive Weather Map
Tropical Storm Tracking
New forecast layout! Learn more

10-Day Weather Forecast

Advertisements
Track Severe Weather on mobile